createdAt,value
2018-12-10T00:01:43.432Z,100484.42
2018-12-10T00:03:52.044Z,100480.09
2018-12-10T00:06:00.202Z,100483.16
2018-12-10T00:08:07.792Z,100491.00
2018-12-10T00:10:13.975Z,100490.55
2018-12-10T00:12:20.062Z,100493.16
2018-12-10T00:14:33.004Z,100487.94
2018-12-10T00:16:39.451Z,100493.65
2018-12-10T00:18:53.803Z,100493.23
2018-12-10T00:21:00.499Z,100490.77
2018-12-10T00:23:06.724Z,100486.47
2018-12-10T00:25:14.372Z,100499.54
2018-12-10T00:27:20.750Z,100500.44
2018-12-10T00:29:27.011Z,100506.56
2018-12-10T00:31:33.485Z,100506.08
2018-12-10T00:33:39.625Z,100519.59
2018-12-10T00:35:45.882Z,100512.13
2018-12-10T00:37:52.082Z,100512.98
2018-12-10T00:39:58.275Z,100525.62
2018-12-10T00:42:04.502Z,100525.62
2018-12-10T00:44:12.079Z,100533.91
2018-12-10T00:46:22.581Z,100528.23
2018-12-10T00:48:29.581Z,100529.54
2018-12-10T00:50:35.704Z,100526.92
2018-12-10T00:52:41.962Z,100527.38
2018-12-10T00:57:05.906Z,100536.97
2018-12-10T00:59:11.995Z,100551.83
2018-12-10T01:01:18.486Z,100552.28
2018-12-10T01:03:25.441Z,100564.97
2018-12-10T01:05:31.709Z,100565.93
2018-12-10T01:07:38.943Z,100566.41
2018-12-10T01:09:46.167Z,100559.91
2018-12-10T01:11:55.025Z,100566.03
2018-12-10T01:14:01.727Z,100567.41
2018-12-10T01:16:07.972Z,100574.42
2018-12-10T01:18:14.869Z,100578.34
2018-12-10T01:20:29.149Z,100578.38
2018-12-10T01:22:35.346Z,100593.23
2018-12-10T01:24:41.985Z,100590.24
2018-12-10T01:26:50.799Z,100595.50
2018-12-10T01:28:56.992Z,100601.69
2018-12-10T01:31:03.233Z,100602.61
2018-12-10T01:33:09.301Z,100609.24
2018-12-10T01:35:16.010Z,100611.92
2018-12-10T01:37:22.184Z,100617.24
2018-12-10T01:39:28.231Z,100621.70
2018-12-10T01:41:35.330Z,100631.41
2018-12-10T01:43:41.579Z,100630.23
2018-12-10T01:48:06.261Z,100628.72
2018-12-10T01:50:12.539Z,100630.12
2018-12-10T01:52:18.735Z,100627.63
2018-12-10T01:54:25.470Z,100634.19
2018-12-10T01:56:31.694Z,100636.03
2018-12-10T01:58:37.801Z,100637.36
2018-12-10T02:00:44.078Z,100643.86
2018-12-10T02:02:50.330Z,100649.53
2018-12-10T02:04:58.553Z,100653.03
2018-12-10T02:07:06.919Z,100656.09
2018-12-10T02:09:14.828Z,100653.92
2018-12-10T02:11:21.037Z,100654.81
2018-12-10T02:13:27.535Z,100661.75
2018-12-10T02:15:33.818Z,100660.45
2018-12-10T02:17:40.090Z,100665.23
2018-12-10T02:19:46.759Z,100663.95
2018-12-10T02:21:54.113Z,100665.23
2018-12-10T02:24:01.021Z,100664.78
2018-12-10T02:26:07.277Z,100667.84
2018-12-10T02:30:43.332Z,100670.39
2018-12-10T02:32:49.521Z,100670.84
2018-12-10T02:34:55.641Z,100674.70
2018-12-10T02:37:02.209Z,100671.25
2018-12-10T02:41:25.591Z,100680.40
2018-12-10T02:43:32.757Z,100678.61
2018-12-10T02:45:38.924Z,100690.84
2018-12-10T02:47:45.394Z,100695.14
2018-12-10T02:49:51.415Z,100692.98
2018-12-10T02:51:57.493Z,100692.15
2018-12-10T02:54:03.731Z,100709.06
2018-12-10T02:56:09.972Z,100703.40
2018-12-10T02:58:16.087Z,100706.43
2018-12-10T03:00:23.365Z,100704.23
2018-12-10T03:02:29.614Z,100710.32
2018-12-10T03:04:36.098Z,100709.48
2018-12-10T03:06:42.433Z,100717.77
2018-12-10T03:08:48.611Z,100716.48
2018-12-10T03:10:54.740Z,100717.79
2018-12-10T03:13:00.808Z,100726.11
2018-12-10T03:15:08.025Z,100723.88
2018-12-10T03:17:14.149Z,100732.58
2018-12-10T03:19:20.218Z,100729.52
2018-12-10T03:21:27.303Z,100725.63
2018-12-10T03:23:41.038Z,100735.27
2018-12-10T03:25:47.158Z,100740.52
2018-12-10T03:27:53.679Z,100747.52
2018-12-10T03:32:18.683Z,100740.16
2018-12-10T03:34:25.490Z,100740.12
2018-12-10T03:36:31.895Z,100740.57
2018-12-10T03:40:55.509Z,100741.48
2018-12-10T03:43:01.648Z,100749.77
2018-12-10T03:45:08.385Z,100760.65
2018-12-10T03:47:14.671Z,100764.19
2018-12-10T03:49:20.957Z,100772.04
2018-12-10T03:51:28.024Z,100770.73
2018-12-10T03:53:34.189Z,100775.07
2018-12-10T03:55:40.485Z,100778.57
2018-12-10T03:57:46.747Z,100773.79
2018-12-10T03:59:52.800Z,100778.17
2018-12-10T04:02:01.532Z,100780.78
2018-12-10T04:04:07.624Z,100778.23
2018-12-10T04:06:13.819Z,100778.70
2018-12-10T04:08:19.920Z,100774.36
2018-12-10T04:10:25.988Z,100774.80
2018-12-10T04:12:32.169Z,100783.06
2018-12-10T04:16:55.640Z,100780.03
2018-12-10T04:19:01.896Z,100784.05
2018-12-10T04:21:08.015Z,100794.15
2018-12-10T04:23:14.116Z,100793.37
2018-12-10T04:25:35.298Z,100795.21
2018-12-10T04:27:41.478Z,100802.30
2018-12-10T04:29:47.663Z,100804.14
2018-12-10T04:31:53.919Z,100796.83
2018-12-10T04:34:00.062Z,100792.94
2018-12-10T04:36:06.212Z,100803.42
2018-12-10T04:38:13.199Z,100796.55
2018-12-10T04:40:19.494Z,100799.18
2018-12-10T04:42:26.325Z,100794.02
2018-12-10T04:44:33.005Z,100797.06
2018-12-10T04:46:39.142Z,100795.34
2018-12-10T04:48:45.325Z,100804.03
2018-12-10T04:50:51.595Z,100813.59
2018-12-10T04:52:57.740Z,100817.00
2018-12-10T04:55:03.941Z,100820.48
2018-12-10T04:57:10.133Z,100823.97
2018-12-10T04:59:16.379Z,100825.75
2018-12-10T05:01:22.521Z,100829.23
2018-12-10T05:03:28.756Z,100833.61
2018-12-10T05:05:35.017Z,100842.30
2018-12-10T05:07:41.074Z,100843.59
2018-12-10T05:09:47.289Z,100849.67
2018-12-10T05:11:53.500Z,100857.06
2018-12-10T05:13:59.613Z,100854.89
2018-12-10T05:16:05.799Z,100860.11
2018-12-10T05:18:12.352Z,100860.55
2018-12-10T05:20:18.447Z,100866.20
2018-12-10T05:22:24.638Z,100865.80
2018-12-10T05:24:30.989Z,100872.84
2018-12-10T05:26:50.161Z,100874.66
2018-12-10T05:28:56.432Z,100872.08
2018-12-10T05:31:02.649Z,100875.62
2018-12-10T05:35:26.185Z,100876.88
2018-12-10T05:37:32.307Z,100868.61
2018-12-10T05:39:38.676Z,100878.14
2018-12-10T05:41:46.911Z,100879.88
2018-12-10T05:43:53.091Z,100879.43
2018-12-10T05:45:59.894Z,100889.86
2018-12-10T05:48:06.131Z,100887.26
2018-12-10T05:50:12.266Z,100887.26
2018-12-10T05:52:18.612Z,100886.42
2018-12-10T05:54:24.926Z,100892.51
2018-12-10T05:56:31.064Z,100894.25
2018-12-10T05:58:37.228Z,100897.74
2018-12-10T06:00:43.373Z,100900.83
2018-12-10T06:02:49.606Z,100900.84
2018-12-10T06:04:56.064Z,100907.78
2018-12-10T06:07:02.320Z,100913.00
2018-12-10T06:09:08.713Z,100905.63
2018-12-10T06:11:14.901Z,100904.31
2018-12-10T06:13:21.027Z,100905.17
2018-12-10T06:15:27.276Z,100906.92
2018-12-10T06:17:33.468Z,100907.82
2018-12-10T06:19:39.686Z,100910.01
2018-12-10T06:21:45.960Z,100908.27
2018-12-10T06:23:52.043Z,100902.66
2018-12-10T06:25:58.150Z,100900.94
2018-12-10T06:28:04.476Z,100910.53
2018-12-10T06:30:11.165Z,100906.24
2018-12-10T06:32:17.245Z,100917.11
2018-12-10T06:34:23.444Z,100913.66
2018-12-10T06:36:29.604Z,100912.35
2018-12-10T06:38:35.961Z,100914.09
2018-12-10T06:40:42.109Z,100919.80
2018-12-10T06:42:49.129Z,100918.92
2018-12-10T06:44:55.186Z,100920.23
2018-12-10T06:47:01.319Z,100927.61
2018-12-10T06:49:07.658Z,100928.91
2018-12-10T06:51:13.849Z,100934.52
2018-12-10T06:53:20.101Z,100934.95
2018-12-10T06:55:26.432Z,100938.84
2018-12-10T06:57:32.626Z,100937.12
2018-12-10T07:01:56.010Z,100947.61
2018-12-10T07:04:02.191Z,100951.95
2018-12-10T07:06:08.617Z,100952.40
2018-12-10T07:08:14.747Z,100956.77
2018-12-10T07:10:21.002Z,100958.13
2018-12-10T07:12:28.320Z,100964.22
2018-12-10T07:14:34.566Z,100963.84
2018-12-10T07:16:40.789Z,100964.66
2018-12-10T07:18:46.869Z,100965.47
2018-12-10T07:20:52.982Z,100970.59
2018-12-10T07:22:59.385Z,100968.77
2018-12-10T07:25:06.189Z,100974.32
2018-12-10T07:27:12.346Z,100968.65
2018-12-10T07:29:19.459Z,100973.36
2018-12-10T07:31:25.740Z,100967.64
2018-12-10T07:33:31.882Z,100971.52
2018-12-10T07:35:38.097Z,100977.09
2018-12-10T07:37:44.924Z,100979.64
2018-12-10T07:39:51.062Z,100983.10
2018-12-10T07:41:57.151Z,100980.86
2018-12-10T07:44:03.476Z,100984.73
2018-12-10T07:46:09.692Z,100987.27
2018-12-10T07:48:16.081Z,100997.63
2018-12-10T07:50:22.410Z,100989.34
2018-12-10T07:52:28.606Z,100992.33
2018-12-10T07:54:35.055Z,100994.94
2018-12-10T07:56:42.502Z,100991.89
2018-12-10T07:58:48.701Z,101003.19
2018-12-10T08:00:54.873Z,101001.87
2018-12-10T08:03:01.042Z,100996.20
2018-12-10T08:05:12.229Z,101001.00
2018-12-10T08:07:15.675Z,101003.17
2018-12-10T08:09:22.006Z,101007.52
2018-12-10T08:11:28.360Z,101005.30
2018-12-10T08:13:34.587Z,101012.24
2018-12-10T08:15:40.686Z,101013.97
2018-12-10T08:17:47.002Z,101020.94
2018-12-10T08:19:53.213Z,101021.34
2018-12-10T08:21:59.750Z,101022.66
2018-12-10T08:24:06.032Z,101015.70
2018-12-10T08:26:12.259Z,101022.60
2018-12-10T08:28:18.300Z,101023.03
2018-12-10T08:30:24.864Z,101022.58
2018-12-10T08:32:32.263Z,101025.18
2018-12-10T08:34:41.446Z,101032.94
2018-12-10T08:36:46.870Z,101031.13
2018-12-10T08:38:53.083Z,101027.63
2018-12-10T08:40:59.272Z,101036.76
2018-12-10T08:43:06.032Z,101035.44
2018-12-10T08:45:12.158Z,101034.13
2018-12-10T08:47:19.531Z,101040.16
2018-12-10T08:49:25.649Z,101041.89
2018-12-10T08:51:31.737Z,101041.02
2018-12-10T08:53:37.813Z,101045.30
2018-12-10T08:55:50.639Z,101039.64
2018-12-10T08:57:57.803Z,101036.56
2018-12-10T09:00:04.008Z,101043.92
2018-12-10T09:02:12.835Z,101040.83
2018-12-10T09:04:19.947Z,101042.53
2018-12-10T09:06:28.198Z,101042.07
2018-12-10T09:08:34.316Z,101043.37
2018-12-10T09:10:40.465Z,101045.53
2018-12-10T09:12:47.589Z,101046.84
2018-12-10T09:14:53.902Z,101047.72
2018-12-10T09:17:00.323Z,101044.69
2018-12-10T09:19:06.887Z,101054.28
2018-12-10T09:21:13.358Z,101061.31
2018-12-10T09:23:19.704Z,101057.84
2018-12-10T09:25:26.399Z,101064.41
2018-12-10T09:27:32.555Z,101071.89
2018-12-10T09:29:38.918Z,101071.48
2018-12-10T09:31:45.727Z,101082.83
2018-12-10T09:36:12.437Z,101084.27
2018-12-10T09:38:18.533Z,101091.69
2018-12-10T09:40:24.852Z,101093.44
2018-12-10T09:42:32.638Z,101090.45
2018-12-10T09:44:39.934Z,101095.63
2018-12-10T09:46:46.093Z,101097.78
2018-12-10T09:48:52.219Z,101096.83
2018-12-10T09:50:58.621Z,101098.05
2018-12-10T09:53:04.760Z,101099.27
2018-12-10T09:55:10.877Z,101106.17
2018-12-10T09:57:17.078Z,101097.79
2018-12-10T09:59:23.361Z,101096.83
2018-12-10T10:01:29.619Z,101098.91
2018-12-10T10:03:35.949Z,101100.12
2018-12-10T10:05:42.184Z,101099.62
2018-12-10T10:07:48.372Z,101098.72
2018-12-10T10:09:54.670Z,101105.16
2018-12-10T10:12:00.835Z,101104.20
2018-12-10T10:14:07.051Z,101102.86
2018-12-10T10:16:13.522Z,101099.29
2018-12-10T10:18:19.785Z,101100.10
2018-12-10T10:20:25.933Z,101091.37
2018-12-10T10:22:32.126Z,101096.98
2018-12-10T10:24:39.285Z,101091.26
2018-12-10T10:26:45.388Z,101088.19
2018-12-10T10:28:52.271Z,101085.08
2018-12-10T10:30:58.384Z,101085.08
2018-12-10T10:33:05.108Z,101083.30
2018-12-10T10:35:12.504Z,101078.92
2018-12-10T10:37:18.621Z,101087.15
2018-12-10T10:39:24.734Z,101078.38
2018-12-10T10:41:31.433Z,101085.30
2018-12-10T10:43:38.315Z,101085.27
2018-12-10T10:45:44.637Z,101091.28
2018-12-10T10:47:52.325Z,101080.81
2018-12-10T10:49:59.607Z,101075.56
2018-12-10T10:52:05.814Z,101087.26
2018-12-10T10:54:11.973Z,101081.56
2018-12-10T10:56:18.162Z,101090.17
2018-12-10T10:58:24.471Z,101099.25
2018-12-10T11:00:36.686Z,101089.20
2018-12-10T11:05:09.564Z,101083.01
2018-12-10T11:07:15.932Z,101085.58
2018-12-10T11:09:22.057Z,101097.72
2018-12-10T11:11:28.173Z,101087.65
2018-12-10T11:13:34.328Z,101093.20
2018-12-10T11:17:58.434Z,101088.70
2018-12-10T11:20:05.704Z,101099.53
2018-12-10T11:22:13.226Z,101089.84
2018-12-10T11:24:19.628Z,101091.05
2018-12-10T11:26:25.938Z,101087.95
2018-12-10T11:28:32.054Z,101084.45
2018-12-10T11:30:38.192Z,101076.96
2018-12-10T11:32:44.388Z,101071.23
2018-12-10T11:34:52.110Z,101068.55
2018-12-10T11:37:00.176Z,101065.05
2018-12-10T11:39:07.863Z,101064.13
2018-12-10T11:41:15.252Z,101055.83
2018-12-10T11:43:21.511Z,101048.42
2018-12-10T11:45:27.893Z,101050.09
2018-12-10T11:47:34.072Z,101041.34
2018-12-10T11:49:40.208Z,101042.12
2018-12-10T11:51:46.313Z,101038.61
2018-12-10T11:53:53.248Z,101038.67
2018-12-10T11:55:59.348Z,101030.82
2018-12-10T11:58:05.586Z,101033.02
2018-12-10T12:00:12.018Z,101023.97
2018-12-10T12:02:18.126Z,101024.89
2018-12-10T12:04:26.369Z,101019.74
2018-12-10T12:06:34.416Z,101017.18
2018-12-10T12:08:40.564Z,101024.17
2018-12-10T12:10:46.659Z,101025.98
2018-12-10T12:12:52.806Z,101026.01
2018-12-10T12:14:59.039Z,101022.55
2018-12-10T12:17:06.298Z,101031.72
2018-12-10T12:19:12.948Z,101030.37
2018-12-10T12:21:19.122Z,101032.08
2018-12-10T12:23:25.555Z,101025.09
2018-12-10T12:25:32.029Z,101023.28
2018-12-10T12:27:39.036Z,101019.77
2018-12-10T12:29:45.705Z,101006.59
2018-12-10T12:31:51.884Z,101014.84
2018-12-10T12:33:58.571Z,101016.48
2018-12-10T12:36:06.772Z,101011.54
2018-12-10T12:38:13.027Z,101008.27
2018-12-10T12:40:19.143Z,101004.20
2018-12-10T12:42:25.248Z,100999.61
2018-12-10T12:44:31.460Z,100994.72
2018-12-10T12:46:37.617Z,100989.36
2018-12-10T12:48:43.797Z,100992.33
2018-12-10T12:50:50.018Z,100986.59
2018-12-10T12:52:56.293Z,100984.73
2018-12-10T12:55:02.692Z,100977.64
2018-12-10T12:57:08.964Z,100977.98
2018-12-10T12:59:15.201Z,100973.13
2018-12-10T13:01:21.371Z,100974.41
2018-12-10T13:03:27.586Z,100968.85
2018-12-10T13:05:33.734Z,100975.81
2018-12-10T13:07:40.703Z,100983.58
2018-12-10T13:09:46.893Z,100982.20
2018-12-10T13:11:53.035Z,100983.45
2018-12-10T13:13:59.335Z,100980.83
2018-12-10T13:16:05.494Z,100978.27
2018-12-10T13:18:11.645Z,100975.69
2018-12-10T13:20:18.019Z,100971.78
2018-12-10T13:22:24.743Z,100970.51
2018-12-10T13:24:31.037Z,100975.75
2018-12-10T13:26:37.157Z,100974.85
2018-12-10T13:28:43.425Z,100975.72
2018-12-10T13:30:49.587Z,100963.92
2018-12-10T13:32:55.779Z,100965.66
2018-12-10T13:35:02.014Z,100975.27
2018-12-10T13:37:10.190Z,100968.30
2018-12-10T13:39:16.303Z,100970.92
2018-12-10T13:41:22.651Z,100970.48
2018-12-10T13:43:29.069Z,100964.38
2018-12-10T13:45:35.225Z,100962.20
2018-12-10T13:47:41.815Z,100955.23
2018-12-10T13:49:48.054Z,100959.27
2018-12-10T13:51:54.354Z,100957.98
2018-12-10T13:54:00.481Z,100960.25
2018-12-10T13:56:06.715Z,100952.46
2018-12-10T13:58:12.856Z,100962.20
2018-12-10T14:00:18.972Z,100957.95
2018-12-10T14:02:30.145Z,100955.44
2018-12-10T14:06:54.610Z,100966.07
2018-12-10T14:09:00.778Z,100962.59
2018-12-10T14:11:07.113Z,100968.72
2018-12-10T14:13:13.251Z,100968.72
2018-12-10T14:15:19.686Z,100968.27
2018-12-10T14:17:25.910Z,100970.00
2018-12-10T14:19:32.123Z,100963.42
2018-12-10T14:21:39.476Z,100962.05
2018-12-10T14:23:45.989Z,100962.02
2018-12-10T14:25:53.141Z,100959.84
2018-12-10T14:27:59.508Z,100965.95
2018-12-10T14:30:07.356Z,100959.81
2018-12-10T14:32:13.694Z,100956.33
2018-12-10T14:34:25.873Z,100956.36
2018-12-10T14:36:32.145Z,100957.31
2018-12-10T14:38:40.510Z,100953.87
2018-12-10T14:40:46.686Z,100954.41
2018-12-10T14:42:57.209Z,100962.33
2018-12-10T14:45:03.410Z,100962.03
2018-12-10T14:47:09.720Z,100966.05
2018-12-10T14:49:15.873Z,100966.62
2018-12-10T14:51:22.123Z,100960.64
2018-12-10T14:53:28.364Z,100959.45
2018-12-10T14:55:34.579Z,100960.44
2018-12-10T14:57:40.778Z,100966.67
2018-12-10T14:59:46.962Z,100969.41
2018-12-10T15:01:53.115Z,100971.70
2018-12-10T15:04:00.050Z,100971.78
2018-12-10T15:06:06.321Z,100980.16
2018-12-10T15:08:12.733Z,100980.19
2018-12-10T15:10:23.258Z,100977.57
2018-12-10T15:12:26.997Z,100983.73
2018-12-10T15:14:33.325Z,100982.42
2018-12-10T15:16:39.504Z,100985.48
2018-12-10T15:18:45.672Z,100982.00
2018-12-10T15:20:51.840Z,100978.55
2018-12-10T15:22:57.990Z,100974.70
2018-12-10T15:25:04.359Z,100977.38
2018-12-10T15:27:10.654Z,100973.13
2018-12-10T15:29:16.925Z,100972.81
2018-12-10T15:31:23.511Z,100974.25
2018-12-10T15:33:29.691Z,100971.38
2018-12-10T15:35:35.922Z,100969.79
2018-12-10T15:37:42.018Z,100970.31
2018-12-10T15:39:49.335Z,100964.72
2018-12-10T15:41:55.617Z,100970.00
2018-12-10T15:44:01.764Z,100970.47
2018-12-10T15:46:07.938Z,100969.66
2018-12-10T15:48:14.102Z,100970.55
2018-12-10T15:50:20.411Z,100976.69
2018-12-10T15:52:26.681Z,100981.97
2018-12-10T15:54:32.857Z,100979.82
2018-12-10T15:56:39.301Z,100975.06
2018-12-10T15:58:45.534Z,100970.33
2018-12-10T16:00:51.736Z,100975.56
2018-12-10T16:02:57.982Z,100969.05
2018-12-10T16:05:04.392Z,100971.66
2018-12-10T16:07:10.565Z,100972.52
2018-12-10T16:09:18.882Z,100973.41
2018-12-10T16:11:25.053Z,100976.47
2018-12-10T16:13:31.244Z,100977.41
2018-12-10T16:15:37.602Z,100973.09
2018-12-10T16:17:44.049Z,100976.20
2018-12-10T16:19:50.358Z,100973.21
2018-12-10T16:21:58.236Z,100976.00
2018-12-10T16:24:04.564Z,100976.14
2018-12-10T16:26:10.892Z,100975.86
2018-12-10T16:28:18.043Z,100971.20
2018-12-10T16:30:24.443Z,100972.14
2018-12-10T16:32:30.705Z,100974.84
2018-12-10T16:34:36.834Z,100973.16
2018-12-10T16:36:43.064Z,100964.09
2018-12-10T16:38:49.302Z,100974.59
2018-12-10T16:40:56.012Z,100970.28
2018-12-10T16:43:02.240Z,100975.94
2018-12-10T16:45:09.570Z,100975.99
2018-12-10T16:47:16.184Z,100973.00
2018-12-10T16:49:22.290Z,100971.32
2018-12-10T16:51:28.507Z,100975.26
2018-12-10T16:53:34.765Z,100975.72
2018-12-10T16:57:58.241Z,100976.22
2018-12-10T17:00:07.639Z,100985.77
2018-12-10T17:02:13.823Z,100979.68
2018-12-10T17:04:19.990Z,100981.84
2018-12-10T17:06:26.110Z,100985.27
2018-12-10T17:08:32.473Z,100978.73
2018-12-10T17:10:38.750Z,100982.58
2018-12-10T17:12:44.944Z,100983.42
2018-12-10T17:14:51.124Z,100986.02
2018-12-10T17:16:57.287Z,100981.61
2018-12-10T17:19:03.626Z,100978.55
2018-12-10T17:21:09.910Z,100978.98
2018-12-10T17:23:16.090Z,100982.02
2018-12-10T17:27:38.802Z,100989.83
2018-12-10T17:29:45.067Z,100989.83
2018-12-10T17:31:51.258Z,100984.55
2018-12-10T17:33:57.438Z,100994.11
2018-12-10T17:36:03.760Z,100991.50
2018-12-10T17:38:10.463Z,100992.79
2018-12-10T17:40:16.742Z,100996.66
2018-12-10T17:42:23.130Z,100992.72
2018-12-10T17:44:29.507Z,100990.97
2018-12-10T17:46:36.371Z,101000.52
2018-12-10T17:48:42.481Z,100997.91
2018-12-10T17:50:48.677Z,101003.08
2018-12-10T17:52:54.972Z,101004.78
2018-12-10T17:55:01.137Z,101005.65
2018-12-10T17:57:07.256Z,101007.36
2018-12-10T17:59:13.597Z,101009.52
2018-12-10T18:01:19.801Z,101001.23
2018-12-10T18:03:26.130Z,101008.13
2018-12-10T18:05:32.322Z,101013.78
2018-12-10T18:07:38.542Z,101046.43
2018-12-10T18:09:45.891Z,101048.62
2018-12-10T18:11:52.174Z,101055.27
2018-12-10T18:14:02.045Z,101059.45
2018-12-10T18:16:08.468Z,101068.35
2018-12-10T18:18:14.749Z,101065.04
2018-12-10T18:20:21.141Z,101071.73
2018-12-10T18:22:27.458Z,101078.84
2018-12-10T18:24:33.972Z,101088.09
2018-12-10T18:26:40.268Z,101089.91
2018-12-10T18:28:46.640Z,101098.67
2018-12-10T18:30:52.877Z,101097.02
2018-12-10T18:32:59.066Z,101101.03
2018-12-10T18:35:05.891Z,101087.66
2018-12-10T18:37:12.182Z,101090.83
2018-12-10T18:39:18.558Z,101092.62
2018-12-10T18:41:24.946Z,101091.78
2018-12-10T18:43:31.927Z,101082.71
2018-12-10T18:45:38.340Z,101085.81
2018-12-10T18:47:44.614Z,101090.22
2018-12-10T18:49:51.358Z,101103.32
2018-12-10T18:51:57.600Z,101103.81
2018-12-10T18:54:04.056Z,101100.78
2018-12-10T18:56:10.308Z,101103.87
2018-12-10T18:58:16.792Z,101106.09
2018-12-10T19:00:23.068Z,101112.19
2018-12-10T19:02:29.381Z,101094.87
2018-12-10T19:04:35.614Z,101104.48
2018-12-10T19:06:41.794Z,101100.20
2018-12-10T19:08:49.513Z,101099.38
2018-12-10T19:10:55.694Z,101107.20
2018-12-10T19:13:02.189Z,101115.88
2018-12-10T19:15:10.918Z,101107.67
2018-12-10T19:17:17.184Z,101116.75
2018-12-10T19:19:23.527Z,101115.88
2018-12-10T19:21:29.959Z,101121.53
2018-12-10T19:23:36.195Z,101123.27
2018-12-10T19:25:42.389Z,101123.70
2018-12-10T19:27:49.622Z,101128.03
2018-12-10T19:29:57.257Z,101115.01
2018-12-10T19:32:03.467Z,101121.95
2018-12-10T19:34:10.036Z,101114.14
2018-12-10T19:36:16.229Z,101121.09
2018-12-10T19:38:22.440Z,101122.39
2018-12-10T19:40:28.653Z,101115.88
2018-12-10T19:42:36.629Z,101115.89
2018-12-10T19:44:43.995Z,101116.75
2018-12-10T19:46:50.270Z,101114.19
2018-12-10T19:48:56.876Z,101110.28
2018-12-10T19:51:03.873Z,101113.28
2018-12-10T19:53:10.061Z,101115.88
2018-12-10T19:55:16.428Z,101118.48
2018-12-10T19:57:22.689Z,101120.22
2018-12-10T19:59:28.993Z,101126.30
2018-12-10T20:01:35.148Z,101134.55
2018-12-10T20:03:41.386Z,101138.45
2018-12-10T20:05:52.757Z,101139.33
2018-12-10T20:07:58.998Z,101146.70
2018-12-10T20:10:08.332Z,101141.50
2018-12-10T20:12:14.637Z,101139.33
2018-12-10T20:14:20.885Z,101139.80
2018-12-10T20:16:28.896Z,101141.11
2018-12-10T20:18:35.557Z,101129.00
2018-12-10T20:20:41.832Z,101123.38
2018-12-10T20:22:48.131Z,101126.42
2018-12-10T20:24:54.371Z,101130.36
2018-12-10T20:27:00.710Z,101128.64
2018-12-10T20:29:07.041Z,101113.49
2018-12-10T20:31:13.181Z,101119.61
2018-12-10T20:33:19.628Z,101123.09
2018-12-10T20:35:27.218Z,101131.80
2018-12-10T20:37:33.503Z,101130.50
2018-12-10T20:39:40.325Z,101131.81
2018-12-10T20:41:46.606Z,101143.05
2018-12-10T20:43:52.945Z,101138.70
2018-12-10T20:45:59.494Z,101146.03
2018-12-10T20:48:05.714Z,101154.67
2018-12-10T20:50:11.988Z,101146.84
2018-12-10T20:52:18.185Z,101148.53
2018-12-10T20:54:24.362Z,101159.77
2018-12-10T20:56:30.596Z,101157.98
2018-12-10T20:58:36.803Z,101159.23
2018-12-10T21:00:43.051Z,101157.45
2018-12-10T21:02:49.174Z,101151.38
2018-12-10T21:04:55.338Z,101159.62
2018-12-10T21:07:01.538Z,101157.84
2018-12-10T21:09:09.894Z,101155.67
2018-12-10T21:11:16.138Z,101164.78
2018-12-10T21:13:22.313Z,101165.64
2018-12-10T21:15:28.563Z,101166.08
2018-12-10T21:17:34.761Z,101170.81
2018-12-10T21:19:41.112Z,101168.64
2018-12-10T21:21:47.328Z,101170.80
2018-12-10T21:23:54.398Z,101181.19
2018-12-10T21:26:00.687Z,101175.09
2018-12-10T21:28:06.829Z,101176.78
2018-12-10T21:30:14.725Z,101180.25
2018-12-10T21:32:38.081Z,101181.94
2018-12-10T21:34:54.885Z,101179.33
2018-12-10T21:37:13.516Z,101172.81
2018-12-10T21:39:21.296Z,101179.33
2018-12-10T21:41:38.891Z,101173.69
2018-12-10T21:43:45.909Z,101179.77
2018-12-10T21:45:52.468Z,101182.81
2018-12-10T21:47:59.802Z,101184.55
2018-12-10T21:50:06.621Z,101179.34
2018-12-10T21:52:15.676Z,101178.47
2018-12-10T21:54:21.854Z,101182.81
2018-12-10T21:56:28.005Z,101176.73
2018-12-10T21:58:34.323Z,101180.64
2018-12-10T22:00:41.049Z,101179.82
2018-12-10T22:02:48.136Z,101180.25
2018-12-10T22:04:56.052Z,101182.42
2018-12-10T22:07:03.894Z,101191.12
2018-12-10T22:09:10.098Z,101189.81
2018-12-10T22:11:18.347Z,101193.73
2018-12-10T22:13:25.435Z,101185.47
2018-12-10T22:15:32.820Z,101188.52
2018-12-10T22:17:39.622Z,101181.13
2018-12-10T22:19:46.010Z,101185.47
2018-12-10T22:21:53.107Z,101179.81
2018-12-10T22:23:59.288Z,101181.94
2018-12-10T22:26:05.711Z,101184.53
2018-12-10T22:28:12.129Z,101180.15
2018-12-10T22:30:25.358Z,101179.72
2018-12-10T22:32:35.675Z,101181.45
2018-12-10T22:34:42.264Z,101175.41
2018-12-10T22:36:54.796Z,101176.72
2018-12-10T22:39:04.237Z,101172.82
2018-12-10T22:41:10.339Z,101171.08
2018-12-10T22:43:16.534Z,101169.78
2018-12-10T22:45:22.783Z,101165.91
2018-12-10T22:47:29.458Z,101164.62
2018-12-10T22:49:38.364Z,101165.97
2018-12-10T22:51:44.794Z,101160.77
2018-12-10T22:53:52.456Z,101157.36
2018-12-10T22:55:59.552Z,101163.05
2018-12-10T22:58:05.685Z,101164.84
2018-12-10T23:00:12.784Z,101161.02
2018-12-10T23:02:20.972Z,101170.58
2018-12-10T23:04:29.649Z,101173.23
2018-12-10T23:06:35.722Z,101165.89
2018-12-10T23:08:41.950Z,101162.90
2018-12-10T23:10:48.492Z,101166.78
2018-12-10T23:12:55.633Z,101166.81
2018-12-10T23:15:01.999Z,101166.82
2018-12-10T23:17:08.750Z,101166.43
2018-12-10T23:19:14.965Z,101169.07
2018-12-10T23:21:22.030Z,101174.28
2018-12-10T23:23:29.042Z,101173.45
2018-12-10T23:25:35.117Z,101169.11
2018-12-10T23:27:42.978Z,101178.66
2018-12-10T23:29:49.465Z,101174.36
2018-12-10T23:31:57.908Z,101180.47
2018-12-10T23:34:04.040Z,101180.50
2018-12-10T23:36:10.672Z,101176.61
2018-12-10T23:38:16.811Z,101176.17
2018-12-10T23:40:23.029Z,101173.60
2018-12-10T23:42:29.326Z,101170.14
2018-12-10T23:44:40.748Z,101172.30
2018-12-10T23:46:47.196Z,101178.84
2018-12-10T23:48:53.304Z,101179.74
2018-12-10T23:51:01.707Z,101178.01
2018-12-10T23:53:09.705Z,101179.34
2018-12-10T23:55:15.904Z,101175.44
2018-12-10T23:57:22.118Z,101173.73
2018-12-10T23:59:28.308Z,101172.44
